sensor_id;sensor_type;location;lat;lon;timestamp;pressure;altitude;pressure_sealevel;temperature
51149;BMP280;37210;50.058;8.688;2023-02-01T00:00:20;100745.16;;;7.18
51149;BMP280;37210;50.058;8.688;2023-02-01T00:02:48;100746.88;;;7.18
51149;BMP280;37210;50.058;8.688;2023-02-01T00:05:16;100751.44;;;7.28
51149;BMP280;37210;50.058;8.688;2023-02-01T00:07:47;100604.91;;;6.47
51149;BMP280;37210;50.058;8.688;2023-02-01T00:10:16;100719.97;;;7.16
51149;BMP280;37210;50.058;8.688;2023-02-01T00:12:45;100735.09;;;7.34
51149;BMP280;37210;50.058;8.688;2023-02-01T00:15:14;100515.28;;;5.88
51149;BMP280;37210;50.058;8.688;2023-02-01T00:21:19;100602.66;;;6.62
51149;BMP280;37210;50.058;8.688;2023-02-01T00:24:16;100673.22;;;6.80
51149;BMP280;37210;50.058;8.688;2023-02-01T00:26:53;100541.69;;;6.08
51149;BMP280;37210;50.058;8.688;2023-02-01T00:34:03;100727.72;;;7.13
51149;BMP280;37210;50.058;8.688;2023-02-01T00:54:44;100645.16;;;6.64
51149;BMP280;37210;50.058;8.688;2023-02-01T00:57:40;100484.88;;;5.84
51149;BMP280;37210;50.058;8.688;2023-02-01T01:01:12;100693.94;;;7.14
51149;BMP280;37210;50.058;8.688;2023-02-01T01:07:42;100671.72;;;6.88
51149;BMP280;37210;50.058;8.688;2023-02-01T01:14:24;100524.66;;;5.83
51149;BMP280;37210;50.058;8.688;2023-02-01T01:17:48;100524.81;;;5.89
51149;BMP280;37210;50.058;8.688;2023-02-01T01:21:39;100501.19;;;5.80
51149;BMP280;37210;50.058;8.688;2023-02-01T01:24:55;100559.28;;;6.19
51149;BMP280;37210;50.058;8.688;2023-02-01T01:27:51;100609.56;;;6.62
51149;BMP280;37210;50.058;8.688;2023-02-01T01:32:03;100501.16;;;5.79
51149;BMP280;37210;50.058;8.688;2023-02-01T01:38:09;100521.69;;;6.04
51149;BMP280;37210;50.058;8.688;2023-02-01T01:40:53;100578.88;;;6.44
51149;BMP280;37210;50.058;8.688;2023-02-01T01:43:50;100503.63;;;6.08
51149;BMP280;37210;50.058;8.688;2023-02-01T01:46:33;100639.50;;;6.82
51149;BMP280;37210;50.058;8.688;2023-02-01T01:49:13;100640.66;;;6.96
51149;BMP280;37210;50.058;8.688;2023-02-01T01:51:47;100695.41;;;7.45
51149;BMP280;37210;50.058;8.688;2023-02-01T01:54:22;100481.31;;;6.18
51149;BMP280;37210;50.058;8.688;2023-02-01T01:57:04;100576.09;;;6.75
51149;BMP280;37210;50.058;8.688;2023-02-01T01:59:39;100512.53;;;6.19
51149;BMP280;37210;50.058;8.688;2023-02-01T02:02:20;100486.47;;;6.16
51149;BMP280;37210;50.058;8.688;2023-02-01T02:04:54;100564.22;;;6.88
51149;BMP280;37210;50.058;8.688;2023-02-01T02:07:26;100474.97;;;6.45
51149;BMP280;37210;50.058;8.688;2023-02-01T02:10:07;100678.28;;;7.56
51149;BMP280;37210;50.058;8.688;2023-02-01T02:12:45;100602.38;;;7.32
51149;BMP280;37210;50.058;8.688;2023-02-01T02:15:19;100516.00;;;6.62
51149;BMP280;37210;50.058;8.688;2023-02-01T02:17:55;100425.81;;;6.13
51149;BMP280;37210;50.058;8.688;2023-02-01T02:20:52;100568.41;;;6.81
51149;BMP280;37210;50.058;8.688;2023-02-01T02:27:28;100436.03;;;6.05
51149;BMP280;37210;50.058;8.688;2023-02-01T02:30:48;100659.41;;;7.23
51149;BMP280;37210;50.058;8.688;2023-02-01T02:34:00;100651.72;;;7.29
51149;BMP280;37210;50.058;8.688;2023-02-01T02:36:42;100657.06;;;7.37
51149;BMP280;37210;50.058;8.688;2023-02-01T02:39:25;100649.63;;;7.11
51149;BMP280;37210;50.058;8.688;2023-02-01T02:42:08;100665.34;;;7.16
51149;BMP280;37210;50.058;8.688;2023-02-01T02:45:02;100618.94;;;6.94
51149;BMP280;37210;50.058;8.688;2023-02-01T02:47:54;100681.19;;;7.28
51149;BMP280;37210;50.058;8.688;2023-02-01T02:50:34;100682.06;;;7.28
51149;BMP280;37210;50.058;8.688;2023-02-01T02:53:25;100687.13;;;7.21
51149;BMP280;37210;50.058;8.688;2023-02-01T02:56:20;100620.69;;;6.95
51149;BMP280;37210;50.058;8.688;2023-02-01T02:59:07;100658.34;;;7.13
51149;BMP280;37210;50.058;8.688;2023-02-01T03:01:54;100672.44;;;7.24
51149;BMP280;37210;50.058;8.688;2023-02-01T03:04:39;100660.47;;;7.33
51149;BMP280;37210;50.058;8.688;2023-02-01T03:07:15;100667.31;;;7.28
51149;BMP280;37210;50.058;8.688;2023-02-01T03:10:26;100657.75;;;7.28
51149;BMP280;37210;50.058;8.688;2023-02-01T03:13:06;100598.59;;;7.16
51149;BMP280;37210;50.058;8.688;2023-02-01T03:15:41;100656.22;;;7.36
51149;BMP280;37210;50.058;8.688;2023-02-01T03:18:16;100663.03;;;7.31
51149;BMP280;37210;50.058;8.688;2023-02-01T03:20:50;100665.06;;;7.46
51149;BMP280;37210;50.058;8.688;2023-02-01T03:23:24;100655.13;;;7.25
51149;BMP280;37210;50.058;8.688;2023-02-01T03:25:56;100631.59;;;7.20
51149;BMP280;37210;50.058;8.688;2023-02-01T03:28:29;100609.09;;;7.22
51149;BMP280;37210;50.058;8.688;2023-02-01T03:31:00;100518.59;;;6.60
51149;BMP280;37210;50.058;8.688;2023-02-01T03:33:30;100630.81;;;7.23
51149;BMP280;37210;50.058;8.688;2023-02-01T03:36:06;100629.34;;;7.39
51149;BMP280;37210;50.058;8.688;2023-02-01T03:38:50;100594.88;;;7.05
51149;BMP280;37210;50.058;8.688;2023-02-01T03:41:27;100643.53;;;7.53
51149;BMP280;37210;50.058;8.688;2023-02-01T03:44:04;100642.44;;;7.42
51149;BMP280;37210;50.058;8.688;2023-02-01T03:46:44;100572.81;;;6.85
51149;BMP280;37210;50.058;8.688;2023-02-01T03:49:19;100639.97;;;7.49
51149;BMP280;37210;50.058;8.688;2023-02-01T03:51:52;100629.31;;;7.36
51149;BMP280;37210;50.058;8.688;2023-02-01T03:54:24;100584.53;;;7.07
51149;BMP280;37210;50.058;8.688;2023-02-01T03:56:54;100637.34;;;7.49
51149;BMP280;37210;50.058;8.688;2023-02-01T03:59:25;100626.91;;;7.46
51149;BMP280;37210;50.058;8.688;2023-02-01T04:01:52;100622.53;;;7.44
51149;BMP280;37210;50.058;8.688;2023-02-01T04:04:20;100582.16;;;7.17
51149;BMP280;37210;50.058;8.688;2023-02-01T04:06:52;100627.59;;;7.36
51149;BMP280;37210;50.058;8.688;2023-02-01T04:09:20;100598.09;;;7.36
51149;BMP280;37210;50.058;8.688;2023-02-01T04:11:49;100622.91;;;7.63
51149;BMP280;37210;50.058;8.688;2023-02-01T04:14:16;100596.78;;;7.14
51149;BMP280;37210;50.058;8.688;2023-02-01T04:16:46;100583.81;;;7.15
51149;BMP280;37210;50.058;8.688;2023-02-01T04:19:14;100588.63;;;6.94
51149;BMP280;37210;50.058;8.688;2023-02-01T04:21:41;100611.94;;;7.35
51149;BMP280;37210;50.058;8.688;2023-02-01T04:24:09;100562.53;;;6.90
51149;BMP280;37210;50.058;8.688;2023-02-01T04:26:38;100627.63;;;7.39
51149;BMP280;37210;50.058;8.688;2023-02-01T04:29:08;100533.00;;;6.88
51149;BMP280;37210;50.058;8.688;2023-02-01T04:31:36;100621.69;;;7.45
51149;BMP280;37210;50.058;8.688;2023-02-01T04:34:04;100631.91;;;7.36
51149;BMP280;37210;50.058;8.688;2023-02-01T04:36:31;100588.09;;;7.13
51149;BMP280;37210;50.058;8.688;2023-02-01T04:38:59;100540.69;;;6.82
51149;BMP280;37210;50.058;8.688;2023-02-01T04:41:27;100624.78;;;7.25
51149;BMP280;37210;50.058;8.688;2023-02-01T04:43:55;100647.53;;;7.37
51149;BMP280;37210;50.058;8.688;2023-02-01T04:46:24;100601.06;;;7.10
51149;BMP280;37210;50.058;8.688;2023-02-01T04:48:51;100636.38;;;7.43
51149;BMP280;37210;50.058;8.688;2023-02-01T04:51:21;100632.03;;;7.43
51149;BMP280;37210;50.058;8.688;2023-02-01T04:53:49;100388.47;;;6.06
51149;BMP280;37210;50.058;8.688;2023-02-01T04:56:17;100631.75;;;7.28
51149;BMP280;37210;50.058;8.688;2023-02-01T04:58:44;100628.63;;;7.44
51149;BMP280;37210;50.058;8.688;2023-02-01T05:01:11;100613.41;;;7.22
51149;BMP280;37210;50.058;8.688;2023-02-01T05:03:40;100621.38;;;7.30
51149;BMP280;37210;50.058;8.688;2023-02-01T05:06:08;100553.72;;;6.83
51149;BMP280;37210;50.058;8.688;2023-02-01T05:08:36;100571.34;;;6.98
51149;BMP280;37210;50.058;8.688;2023-02-01T05:11:03;100585.28;;;7.01
51149;BMP280;37210;50.058;8.688;2023-02-01T05:13:31;100613.69;;;7.36
51149;BMP280;37210;50.058;8.688;2023-02-01T05:16:16;100562.53;;;6.91
51149;BMP280;37210;50.058;8.688;2023-02-01T05:18:45;100586.28;;;7.08
51149;BMP280;37210;50.058;8.688;2023-02-01T05:21:13;100573.84;;;6.93
51149;BMP280;37210;50.058;8.688;2023-02-01T05:23:40;100590.84;;;7.19
51149;BMP280;37210;50.058;8.688;2023-02-01T05:26:22;100601.06;;;7.09
51149;BMP280;37210;50.058;8.688;2023-02-01T05:28:50;100600.66;;;7.34
51149;BMP280;37210;50.058;8.688;2023-02-01T05:31:18;100603.19;;;7.31
51149;BMP280;37210;50.058;8.688;2023-02-01T05:33:47;100604.88;;;7.28
51149;BMP280;37210;50.058;8.688;2023-02-01T05:36:15;100584.88;;;7.25
51149;BMP280;37210;50.058;8.688;2023-02-01T05:38:42;100585.75;;;7.25
51149;BMP280;37210;50.058;8.688;2023-02-01T05:41:12;100610.28;;;7.38
51149;BMP280;37210;50.058;8.688;2023-02-01T05:43:39;100562.66;;;6.97
51149;BMP280;37210;50.058;8.688;2023-02-01T05:46:07;100576.88;;;7.16
51149;BMP280;37210;50.058;8.688;2023-02-01T05:48:36;100605.72;;;7.28
51149;BMP280;37210;50.058;8.688;2023-02-01T05:51:05;100578.69;;;7.18
51149;BMP280;37210;50.058;8.688;2023-02-01T05:53:33;100612.94;;;7.41
51149;BMP280;37210;50.058;8.688;2023-02-01T05:56:01;100608.72;;;7.49
51149;BMP280;37210;50.058;8.688;2023-02-01T05:58:29;100592.22;;;7.47
51149;BMP280;37210;50.058;8.688;2023-02-01T06:00:58;100601.09;;;7.58
51149;BMP280;37210;50.058;8.688;2023-02-01T06:03:26;100607.69;;;7.40
51149;BMP280;37210;50.058;8.688;2023-02-01T06:05:54;100581.56;;;7.34
51149;BMP280;37210;50.058;8.688;2023-02-01T06:08:23;100586.56;;;7.23
51149;BMP280;37210;50.058;8.688;2023-02-01T06:10:57;100567.25;;;7.10
51149;BMP280;37210;50.058;8.688;2023-02-01T06:13:25;100573.34;;;7.11
51149;BMP280;37210;50.058;8.688;2023-02-01T06:15:53;100598.72;;;7.24
51149;BMP280;37210;50.058;8.688;2023-02-01T06:18:21;100601.19;;;7.16
51149;BMP280;37210;50.058;8.688;2023-02-01T06:20:52;100598.72;;;7.24
51149;BMP280;37210;50.058;8.688;2023-02-01T06:23:20;100592.06;;;7.38
51149;BMP280;37210;50.058;8.688;2023-02-01T06:25:52;100598.69;;;7.21
51149;BMP280;37210;50.058;8.688;2023-02-01T06:28:20;100592.56;;;7.19
51149;BMP280;37210;50.058;8.688;2023-02-01T06:30:49;100607.28;;;7.17
51149;BMP280;37210;50.058;8.688;2023-02-01T06:33:16;100591.47;;;7.08
51149;BMP280;37210;50.058;8.688;2023-02-01T06:35:44;100619.25;;;7.09
51149;BMP280;37210;50.058;8.688;2023-02-01T06:38:11;100554.59;;;6.84
51149;BMP280;37210;50.058;8.688;2023-02-01T06:40:39;100617.00;;;7.27
51149;BMP280;37210;50.058;8.688;2023-02-01T06:43:09;100489.56;;;6.40
51149;BMP280;37210;50.058;8.688;2023-02-01T06:45:37;100605.19;;;7.01
51149;BMP280;37210;50.058;8.688;2023-02-01T06:48:05;100616.22;;;6.88
51149;BMP280;37210;50.058;8.688;2023-02-01T06:50:33;100541.38;;;6.33
51149;BMP280;37210;50.058;8.688;2023-02-01T06:53:01;100588.13;;;6.72
51149;BMP280;37210;50.058;8.688;2023-02-01T06:55:28;100624.91;;;6.90
51149;BMP280;37210;50.058;8.688;2023-02-01T06:57:56;100592.50;;;6.74
51149;BMP280;37210;50.058;8.688;2023-02-01T07:00:25;100623.50;;;7.05
51149;BMP280;37210;50.058;8.688;2023-02-01T07:02:52;100594.09;;;6.68
51149;BMP280;37210;50.058;8.688;2023-02-01T07:05:21;100612.09;;;6.99
51149;BMP280;37210;50.058;8.688;2023-02-01T07:07:49;100614.53;;;6.90
51149;BMP280;37210;50.058;8.688;2023-02-01T07:10:17;100604.59;;;6.71
51149;BMP280;37210;50.058;8.688;2023-02-01T07:12:44;100567.13;;;6.61
51149;BMP280;37210;50.058;8.688;2023-02-01T07:15:12;100573.75;;;6.89
51149;BMP280;37210;50.058;8.688;2023-02-01T07:17:41;100598.41;;;6.66
51149;BMP280;37210;50.058;8.688;2023-02-01T07:20:10;100604.94;;;6.87
51149;BMP280;37210;50.058;8.688;2023-02-01T07:22:38;100610.59;;;6.68
51149;BMP280;37210;50.058;8.688;2023-02-01T07:25:06;100608.34;;;6.85
51149;BMP280;37210;50.058;8.688;2023-02-01T07:27:35;100592.75;;;6.86
51149;BMP280;37210;50.058;8.688;2023-02-01T07:30:04;100601.41;;;6.84
51149;BMP280;37210;50.058;8.688;2023-02-01T07:32:32;100607.19;;;6.71
51149;BMP280;37210;50.058;8.688;2023-02-01T07:35:01;100604.72;;;6.77
51149;BMP280;37210;50.058;8.688;2023-02-01T07:37:29;100607.41;;;6.81
51149;BMP280;37210;50.058;8.688;2023-02-01T07:39:56;100582.91;;;6.70
51149;BMP280;37210;50.058;8.688;2023-02-01T07:42:25;100582.81;;;6.66
51149;BMP280;37210;50.058;8.688;2023-02-01T07:44:52;100582.97;;;6.34
51149;BMP280;37210;50.058;8.688;2023-02-01T07:47:20;100502.69;;;6.05
51149;BMP280;37210;50.058;8.688;2023-02-01T07:49:47;100595.72;;;6.61
51149;BMP280;37210;50.058;8.688;2023-02-01T07:52:16;100655.91;;;6.79
51149;BMP280;37210;50.058;8.688;2023-02-01T07:54:44;100654.41;;;6.90
51149;BMP280;37210;50.058;8.688;2023-02-01T07:57:11;100634.34;;;6.86
51149;BMP280;37210;50.058;8.688;2023-02-01T07:59:39;100645.53;;;7.22
51149;BMP280;37210;50.058;8.688;2023-02-01T08:02:27;100658.41;;;7.16
51149;BMP280;37210;50.058;8.688;2023-02-01T08:04:53;100508.16;;;6.18
51149;BMP280;37210;50.058;8.688;2023-02-01T08:07:22;100658.44;;;7.18
51149;BMP280;37210;50.058;8.688;2023-02-01T08:09:50;100612.16;;;7.02
51149;BMP280;37210;50.058;8.688;2023-02-01T08:12:17;100648.22;;;7.27
51149;BMP280;37210;50.058;8.688;2023-02-01T08:14:45;100661.53;;;7.42
51149;BMP280;37210;50.058;8.688;2023-02-01T08:17:12;100546.81;;;6.85
51149;BMP280;37210;50.058;8.688;2023-02-01T08:19:40;100581.41;;;7.26
51149;BMP280;37210;50.058;8.688;2023-02-01T08:22:09;100577.88;;;7.21
51149;BMP280;37210;50.058;8.688;2023-02-01T08:24:39;100668.28;;;7.77
51149;BMP280;37210;50.058;8.688;2023-02-01T08:27:07;100668.06;;;7.65
51149;BMP280;37210;50.058;8.688;2023-02-01T08:29:35;100639.06;;;7.47
51149;BMP280;37210;50.058;8.688;2023-02-01T08:32:02;100667.34;;;7.74
51149;BMP280;37210;50.058;8.688;2023-02-01T08:34:30;100627.25;;;7.66
51149;BMP280;37210;50.058;8.688;2023-02-01T08:36:58;100670.25;;;7.44
51149;BMP280;37210;50.058;8.688;2023-02-01T08:39:28;100571.78;;;7.20
51149;BMP280;37210;50.058;8.688;2023-02-01T08:41:56;100679.41;;;7.70
51149;BMP280;37210;50.058;8.688;2023-02-01T08:44:38;100678.78;;;7.82
51149;BMP280;37210;50.058;8.688;2023-02-01T08:47:05;100684.50;;;8.12
51149;BMP280;37210;50.058;8.688;2023-02-01T08:49:33;100678.91;;;7.89
51149;BMP280;37210;50.058;8.688;2023-02-01T08:52:00;100693.63;;;7.87
51149;BMP280;37210;50.058;8.688;2023-02-01T08:54:28;100690.22;;;7.91
51149;BMP280;37210;50.058;8.688;2023-02-01T08:56:56;100690.13;;;7.85
51149;BMP280;37210;50.058;8.688;2023-02-01T09:57:53;100696.66;;;7.64
51149;BMP280;37210;50.058;8.688;2023-02-01T10:00:34;100574.78;;;6.97
51149;BMP280;37210;50.058;8.688;2023-02-01T10:03:10;100739.00;;;8.00
51149;BMP280;37210;50.058;8.688;2023-02-01T10:06:24;100536.75;;;6.59
51149;BMP280;37210;50.058;8.688;2023-02-01T10:09:31;100720.75;;;7.98
51149;BMP280;37210;50.058;8.688;2023-02-01T10:13:27;100529.44;;;6.84
51149;BMP280;37210;50.058;8.688;2023-02-01T10:20:29;100717.09;;;7.89
51149;BMP280;37210;50.058;8.688;2023-02-01T10:43:22;100695.69;;;8.05
51149;BMP280;37210;50.058;8.688;2023-02-01T10:47:44;100501.84;;;6.91
51149;BMP280;37210;50.058;8.688;2023-02-01T10:53:49;100608.88;;;7.57
51149;BMP280;37210;50.058;8.688;2023-02-01T10:57:23;100680.91;;;8.04
51149;BMP280;37210;50.058;8.688;2023-02-01T11:08:45;100676.59;;;8.57
51149;BMP280;37210;50.058;8.688;2023-02-01T11:14:46;100478.38;;;7.34
51149;BMP280;37210;50.058;8.688;2023-02-01T11:15:19;100669.41;;;8.42
51149;BMP280;37210;50.058;8.688;2023-02-01T11:18:14;100461.63;;;7.20
51149;BMP280;37210;50.058;8.688;2023-02-01T11:21:01;100465.66;;;7.52
51149;BMP280;37210;50.058;8.688;2023-02-01T11:23:43;100654.94;;;8.62
51149;BMP280;37210;50.058;8.688;2023-02-01T11:26:29;100473.00;;;7.23
51149;BMP280;37210;50.058;8.688;2023-02-01T11:29:03;100606.78;;;7.87
51149;BMP280;37210;50.058;8.688;2023-02-01T11:31:37;100676.16;;;8.31
51149;BMP280;37210;50.058;8.688;2023-02-01T11:34:10;100627.00;;;8.01
51149;BMP280;37210;50.058;8.688;2023-02-01T11:36:48;100666.44;;;8.24
51149;BMP280;37210;50.058;8.688;2023-02-01T11:39:24;100596.56;;;7.97
51149;BMP280;37210;50.058;8.688;2023-02-01T11:42:00;100649.38;;;8.40
51149;BMP280;37210;50.058;8.688;2023-02-01T11:44:34;100470.66;;;7.40
51149;BMP280;37210;50.058;8.688;2023-02-01T11:47:23;100424.34;;;7.19
51149;BMP280;37210;50.058;8.688;2023-02-01T11:49:55;100491.59;;;7.49
51149;BMP280;37210;50.058;8.688;2023-02-01T11:56:36;100580.41;;;8.20
51149;BMP280;37210;50.058;8.688;2023-02-01T12:00:47;100530.91;;;7.63
51149;BMP280;37210;50.058;8.688;2023-02-01T12:07:09;100645.72;;;8.29
51149;BMP280;37210;50.058;8.688;2023-02-01T12:10:33;100638.22;;;8.50
51149;BMP280;37210;50.058;8.688;2023-02-01T12:40:36;100392.78;;;6.98
51149;BMP280;37210;50.058;8.688;2023-02-01T12:43:54;100412.91;;;7.10
51149;BMP280;37210;50.058;8.688;2023-02-01T13:22:57;100479.97;;;7.81
51149;BMP280;37210;50.058;8.688;2023-02-01T13:29:24;100453.84;;;7.74
51149;BMP280;37210;50.058;8.688;2023-02-01T14:04:57;100347.50;;;7.43
51149;BMP280;37210;50.058;8.688;2023-02-01T14:08:13;100363.38;;;7.59
51149;BMP280;37210;50.058;8.688;2023-02-01T14:15:19;100536.94;;;8.80
51149;BMP280;37210;50.058;8.688;2023-02-01T14:17:51;100344.44;;;7.71
51149;BMP280;37210;50.058;8.688;2023-02-01T14:20:45;100530.84;;;8.82
51149;BMP280;37210;50.058;8.688;2023-02-01T14:23:29;100494.16;;;8.66
51149;BMP280;37210;50.058;8.688;2023-02-01T14:26:18;100416.25;;;8.20
51149;BMP280;37210;50.058;8.688;2023-02-01T14:28:53;100444.41;;;8.45
51149;BMP280;37210;50.058;8.688;2023-02-01T14:32:13;100301.13;;;7.79
51149;BMP280;37210;50.058;8.688;2023-02-01T14:34:59;100517.94;;;8.93
51149;BMP280;37210;50.058;8.688;2023-02-01T14:37:38;100299.34;;;7.73
51149;BMP280;37210;50.058;8.688;2023-02-01T14:40:26;100412.31;;;8.50
51149;BMP280;37210;50.058;8.688;2023-02-01T14:43:10;100322.09;;;7.91
51149;BMP280;37210;50.058;8.688;2023-02-01T14:45:57;100522.72;;;9.33
51149;BMP280;37210;50.058;8.688;2023-02-01T14:48:59;100469.06;;;8.74
51149;BMP280;37210;50.058;8.688;2023-02-01T14:51:35;100379.94;;;8.32
51149;BMP280;37210;50.058;8.688;2023-02-01T14:54:22;100517.28;;;9.14
51149;BMP280;37210;50.058;8.688;2023-02-01T14:56:55;100521.72;;;9.22
51149;BMP280;37210;50.058;8.688;2023-02-01T14:59:33;100514.88;;;9.30
51149;BMP280;37210;50.058;8.688;2023-02-01T15:02:21;100401.03;;;8.54
51149;BMP280;37210;50.058;8.688;2023-02-01T15:05:00;100299.69;;;8.03
51149;BMP280;37210;50.058;8.688;2023-02-01T15:08:16;100522.50;;;9.12
51149;BMP280;37210;50.058;8.688;2023-02-01T15:10:51;100528.75;;;9.28
51149;BMP280;37210;50.058;8.688;2023-02-01T15:13:24;100408.88;;;8.57
51149;BMP280;37210;50.058;8.688;2023-02-01T15:16:35;100332.91;;;8.23
51149;BMP280;37210;50.058;8.688;2023-02-01T15:19:25;100553.09;;;9.27
51149;BMP280;37210;50.058;8.688;2023-02-01T15:22:59;100396.63;;;8.47
51149;BMP280;37210;50.058;8.688;2023-02-01T15:26:09;100452.66;;;8.84
51149;BMP280;37210;50.058;8.688;2023-02-01T15:28:37;100499.75;;;8.99
51149;BMP280;37210;50.058;8.688;2023-02-01T15:31:05;100517.22;;;9.08
51149;BMP280;37210;50.058;8.688;2023-02-01T15:33:32;100535.50;;;9.08
51149;BMP280;37210;50.058;8.688;2023-02-01T15:36:08;100539.03;;;9.14
51149;BMP280;37210;50.058;8.688;2023-02-01T15:38:39;100539.88;;;9.12
51149;BMP280;37210;50.058;8.688;2023-02-01T15:41:12;100537.16;;;9.01
51149;BMP280;37210;50.058;8.688;2023-02-01T15:43:44;100544.25;;;9.11
51149;BMP280;37210;50.058;8.688;2023-02-01T15:46:21;100538.88;;;8.99
51149;BMP280;37210;50.058;8.688;2023-02-01T15:48:53;100531.94;;;9.01
51149;BMP280;37210;50.058;8.688;2023-02-01T15:51:22;100533.63;;;8.95
51149;BMP280;37210;50.058;8.688;2023-02-01T15:53:58;100469.59;;;8.47
51149;BMP280;37210;50.058;8.688;2023-02-01T15:56:36;100476.72;;;8.62
51149;BMP280;37210;50.058;8.688;2023-02-01T15:59:15;100542.25;;;8.89
51149;BMP280;37210;50.058;8.688;2023-02-01T16:01:44;100522.22;;;8.86
51149;BMP280;37210;50.058;8.688;2023-02-01T16:04:16;100510.13;;;8.93
51149;BMP280;37210;50.058;8.688;2023-02-01T16:06:48;100507.50;;;8.90
51149;BMP280;37210;50.058;8.688;2023-02-01T16:09:19;100537.09;;;8.95
51149;BMP280;37210;50.058;8.688;2023-02-01T16:11:54;100549.16;;;8.84
51149;BMP280;37210;50.058;8.688;2023-02-01T16:14:24;100516.88;;;8.74
51149;BMP280;37210;50.058;8.688;2023-02-01T16:16:53;100546.63;;;8.93
51149;BMP280;37210;50.058;8.688;2023-02-01T16:19:22;100549.28;;;8.96
51149;BMP280;37210;50.058;8.688;2023-02-01T16:21:54;100485.38;;;8.56
51149;BMP280;37210;50.058;8.688;2023-02-01T16:24:21;100544.97;;;8.97
51149;BMP280;37210;50.058;8.688;2023-02-01T16:26:53;100499.41;;;8.67
51149;BMP280;37210;50.058;8.688;2023-02-01T16:29:20;100554.50;;;8.96
51149;BMP280;37210;50.058;8.688;2023-02-01T16:31:48;100536.19;;;8.89
51149;BMP280;37210;50.058;8.688;2023-02-01T16:34:17;100542.50;;;9.10
51149;BMP280;37210;50.058;8.688;2023-02-01T16:36:47;100544.19;;;9.07
51149;BMP280;37210;50.058;8.688;2023-02-01T16:39:18;100460.97;;;8.51
51149;BMP280;37210;50.058;8.688;2023-02-01T16:41:46;100528.50;;;9.04
51149;BMP280;37210;50.058;8.688;2023-02-01T16:44:15;100514.44;;;8.91
51149;BMP280;37210;50.058;8.688;2023-02-01T16:46:44;100536.44;;;9.13
51149;BMP280;37210;50.058;8.688;2023-02-01T16:49:18;100542.41;;;9.03
51149;BMP280;37210;50.058;8.688;2023-02-01T16:51:47;100547.50;;;8.91
51149;BMP280;37210;50.058;8.688;2023-02-01T16:54:16;100546.75;;;9.01
51149;BMP280;37210;50.058;8.688;2023-02-01T16:56:45;100534.53;;;9.00
51149;BMP280;37210;50.058;8.688;2023-02-01T16:59:13;100420.81;;;8.34
51149;BMP280;37210;50.058;8.688;2023-02-01T17:01:42;100470.53;;;8.51
51149;BMP280;37210;50.058;8.688;2023-02-01T17:04:10;100538.16;;;9.11
51149;BMP280;37210;50.058;8.688;2023-02-01T17:06:38;100534.66;;;9.10
51149;BMP280;37210;50.058;8.688;2023-02-01T17:09:06;100412.13;;;8.35
51149;BMP280;37210;50.058;8.688;2023-02-01T17:11:34;100531.22;;;9.14
51149;BMP280;37210;50.058;8.688;2023-02-01T17:14:15;100530.97;;;8.89
51149;BMP280;37210;50.058;8.688;2023-02-01T17:16:45;100523.91;;;8.83
51149;BMP280;37210;50.058;8.688;2023-02-01T17:19:16;100500.44;;;8.84
51149;BMP280;37210;50.058;8.688;2023-02-01T17:21:50;100526.50;;;8.80
51149;BMP280;37210;50.058;8.688;2023-02-01T17:24:23;100544.78;;;8.84
51149;BMP280;37210;50.058;8.688;2023-02-01T17:26:52;100521.31;;;8.84
51149;BMP280;37210;50.058;8.688;2023-02-01T17:29:20;100539.63;;;8.86
51149;BMP280;37210;50.058;8.688;2023-02-01T17:31:51;100545.53;;;8.71
51149;BMP280;37210;50.058;8.688;2023-02-01T17:34:20;100551.78;;;8.87
51149;BMP280;37210;50.058;8.688;2023-02-01T17:36:48;100550.06;;;8.88
51149;BMP280;37210;50.058;8.688;2023-02-01T17:39:17;100518.69;;;8.80
51149;BMP280;37210;50.058;8.688;2023-02-01T17:42:04;100500.97;;;8.53
51149;BMP280;37210;50.058;8.688;2023-02-01T17:44:32;100556.03;;;8.76
51149;BMP280;37210;50.058;8.688;2023-02-01T17:47:01;100528.94;;;8.68
51149;BMP280;37210;50.058;8.688;2023-02-01T17:49:29;100464.06;;;8.22
51149;BMP280;37210;50.058;8.688;2023-02-01T17:51:57;100536.84;;;8.72
51149;BMP280;37210;50.058;8.688;2023-02-01T17:54:25;100503.34;;;8.37
51149;BMP280;37210;50.058;8.688;2023-02-01T17:56:52;100567.50;;;8.90
51149;BMP280;37210;50.058;8.688;2023-02-01T17:59:20;100572.66;;;8.85
51149;BMP280;37210;50.058;8.688;2023-02-01T18:01:48;100556.81;;;8.70
51149;BMP280;37210;50.058;8.688;2023-02-01T18:04:18;100539.38;;;8.68
51149;BMP280;37210;50.058;8.688;2023-02-01T18:06:47;100392.41;;;7.88
51149;BMP280;37210;50.058;8.688;2023-02-01T18:09:14;100569.97;;;8.81
51149;BMP280;37210;50.058;8.688;2023-02-01T18:11:42;100571.88;;;8.94
51149;BMP280;37210;50.058;8.688;2023-02-01T18:14:11;100574.50;;;8.97
51149;BMP280;37210;50.058;8.688;2023-02-01T18:16:39;100553.50;;;8.82
51149;BMP280;37210;50.058;8.688;2023-02-01T18:19:06;100570.09;;;8.92
51149;BMP280;37210;50.058;8.688;2023-02-01T18:21:37;100583.09;;;8.87
51149;BMP280;37210;50.058;8.688;2023-02-01T18:24:10;100571.66;;;8.76
51149;BMP280;37210;50.058;8.688;2023-02-01T18:26:39;100525.28;;;8.51
51149;BMP280;37210;50.058;8.688;2023-02-01T18:29:07;100589.06;;;8.77
51149;BMP280;37210;50.058;8.688;2023-02-01T18:31:43;100583.97;;;8.86
51149;BMP280;37210;50.058;8.688;2023-02-01T18:34:12;100525.28;;;8.51
51149;BMP280;37210;50.058;8.688;2023-02-01T18:36:47;100580.28;;;8.72
51149;BMP280;37210;50.058;8.688;2023-02-01T18:39:15;100506.97;;;8.46
51149;BMP280;37210;50.058;8.688;2023-02-01T18:41:43;100567.34;;;8.78
51149;BMP280;37210;50.058;8.688;2023-02-01T18:44:12;100571.69;;;8.77
51149;BMP280;37210;50.058;8.688;2023-02-01T18:46:42;100532.16;;;8.46
51149;BMP280;37210;50.058;8.688;2023-02-01T18:49:10;100579.28;;;8.59
51149;BMP280;37210;50.058;8.688;2023-02-01T18:51:39;100488.22;;;8.12
51149;BMP280;37210;50.058;8.688;2023-02-01T18:54:10;100560.84;;;8.47
51149;BMP280;37210;50.058;8.688;2023-02-01T18:56:38;100583.63;;;8.59
51149;BMP280;37210;50.058;8.688;2023-02-01T18:59:06;100579.56;;;8.82
51149;BMP280;37210;50.058;8.688;2023-02-01T19:01:34;100588.16;;;8.75
51149;BMP280;37210;50.058;8.688;2023-02-01T19:04:02;100544.44;;;8.54
51149;BMP280;37210;50.058;8.688;2023-02-01T19:06:29;100589.09;;;8.80
51149;BMP280;37210;50.058;8.688;2023-02-01T19:08:57;100587.41;;;8.85
51149;BMP280;37210;50.058;8.688;2023-02-01T19:11:28;100589.81;;;8.70